createdAt,value
2019-02-28T00:00:12.690Z,982.60
2019-02-28T00:01:12.859Z,982.55
2019-02-28T00:02:12.661Z,982.51
2019-02-28T00:03:12.912Z,982.52
2019-02-28T00:04:12.642Z,982.50
2019-02-28T00:05:12.846Z,982.47
2019-02-28T00:06:12.863Z,982.39
2019-02-28T00:07:17.405Z,982.34
2019-02-28T00:08:12.604Z,982.34
2019-02-28T00:09:12.700Z,982.37
2019-02-28T00:10:13.178Z,982.37
2019-02-28T00:11:12.742Z,982.33
2019-02-28T00:12:13.638Z,982.41
2019-02-28T00:13:13.163Z,982.34
2019-02-28T00:14:13.205Z,982.35
2019-02-28T00:15:12.586Z,982.33
2019-02-28T00:16:12.522Z,982.38
2019-02-28T00:17:12.337Z,982.31
2019-02-28T00:18:15.331Z,982.35
2019-02-28T00:19:25.118Z,982.32
2019-02-28T00:21:06.946Z,982.30
2019-02-28T00:22:05.242Z,982.31
2019-02-28T00:24:04.182Z,982.26
2019-02-28T00:25:04.372Z,982.25
2019-02-28T00:26:03.699Z,982.24
2019-02-28T00:27:04.278Z,982.19
2019-02-28T00:28:08.189Z,982.16
2019-02-28T00:29:03.560Z,982.26
2019-02-28T00:30:06.073Z,982.25
2019-02-28T00:31:03.537Z,982.25
2019-02-28T00:32:04.298Z,982.24
2019-02-28T00:33:05.129Z,982.20
2019-02-28T00:34:05.459Z,982.16
2019-02-28T00:35:03.503Z,982.21
2019-02-28T00:36:04.292Z,982.16
2019-02-28T00:37:03.723Z,982.14
2019-02-28T00:38:03.472Z,982.09
2019-02-28T00:39:04.063Z,982.09
2019-02-28T00:41:10.350Z,982.11
2019-02-28T00:42:04.346Z,982.07
2019-02-28T00:43:03.521Z,982.07
2019-02-28T00:44:04.506Z,982.03
2019-02-28T00:45:03.746Z,981.99
2019-02-28T00:46:03.400Z,981.95
2019-02-28T00:47:03.433Z,981.93
2019-02-28T00:48:03.324Z,981.90
2019-02-28T00:49:03.301Z,981.86
2019-02-28T00:50:03.340Z,981.92
2019-02-28T00:51:04.791Z,981.92
2019-02-28T00:52:03.114Z,981.88
2019-02-28T00:53:06.406Z,981.83
2019-02-28T00:54:08.551Z,981.88
2019-02-28T00:55:03.777Z,981.78
2019-02-28T00:56:03.152Z,981.73
2019-02-28T00:57:03.069Z,981.72
2019-02-28T00:58:07.891Z,981.76
2019-02-28T00:59:09.905Z,981.70
2019-02-28T01:00:05.547Z,981.72
2019-02-28T01:01:03.240Z,981.76
2019-02-28T01:02:05.675Z,981.72
2019-02-28T01:03:07.779Z,981.70
2019-02-28T01:04:02.956Z,981.65
2019-02-28T01:05:23.990Z,981.66
2019-02-28T01:06:03.036Z,981.63
2019-02-28T01:07:04.682Z,981.61
2019-02-28T01:08:02.859Z,981.58
2019-02-28T01:09:03.123Z,981.56
2019-02-28T01:10:04.510Z,981.52
2019-02-28T01:11:10.330Z,981.53
2019-02-28T01:12:02.850Z,981.51
2019-02-28T01:13:02.874Z,981.51
2019-02-28T01:14:03.157Z,981.50
2019-02-28T01:18:40.559Z,981.38
2019-02-28T01:19:45.308Z,981.44
2019-02-28T01:20:40.623Z,981.41
2019-02-28T01:21:42.140Z,981.37
2019-02-28T01:22:40.525Z,981.40
2019-02-28T01:25:03.090Z,981.34
2019-02-28T01:26:02.872Z,981.29
2019-02-28T01:27:13.853Z,981.33
2019-02-28T01:28:02.823Z,981.29
2019-02-28T01:29:03.410Z,981.32
2019-02-28T01:30:02.902Z,981.30
2019-02-28T01:31:02.823Z,981.23
2019-02-28T01:32:02.730Z,981.24
2019-02-28T01:33:02.789Z,981.17
2019-02-28T01:34:02.738Z,981.16
2019-02-28T01:35:06.818Z,981.15
2019-02-28T01:36:02.725Z,981.17
2019-02-28T01:37:03.544Z,981.11
2019-02-28T01:38:02.861Z,980.99
2019-02-28T01:39:04.374Z,981.10
2019-02-28T01:40:04.336Z,981.04
2019-02-28T01:42:24.727Z,981.07
2019-02-28T01:43:28.396Z,981.05
2019-02-28T01:44:24.615Z,980.97
2019-02-28T01:45:23.096Z,980.97
2019-02-28T01:46:24.689Z,980.92
2019-02-28T01:47:23.030Z,980.95
2019-02-28T01:48:23.733Z,980.98
2019-02-28T01:49:25.951Z,980.95
2019-02-28T01:50:23.755Z,980.89
2019-02-28T01:51:23.581Z,980.87
2019-02-28T01:52:22.962Z,980.86
2019-02-28T01:53:29.631Z,980.87
2019-02-28T01:54:28.486Z,980.85
2019-02-28T01:55:22.988Z,980.84
2019-02-28T01:56:23.010Z,980.77
2019-02-28T01:57:22.841Z,980.79
2019-02-28T01:58:23.010Z,980.74
2019-02-28T01:59:23.768Z,980.77
2019-02-28T02:00:23.832Z,980.81
2019-02-28T02:01:22.909Z,980.76
2019-02-28T02:02:22.936Z,980.76
2019-02-28T02:04:45.791Z,980.74
2019-02-28T02:05:43.882Z,980.73
2019-02-28T02:07:48.808Z,980.71
2019-02-28T02:08:51.198Z,980.70
2019-02-28T02:09:48.658Z,980.64
2019-02-28T02:10:48.704Z,980.66
2019-02-28T02:12:48.444Z,980.57
2019-02-28T02:13:48.655Z,980.52
2019-02-28T02:14:49.132Z,980.52
2019-02-28T02:15:53.345Z,980.53
2019-02-28T02:16:55.287Z,980.43
2019-02-28T02:17:48.452Z,980.50
2019-02-28T02:19:03.228Z,980.45
2019-02-28T02:19:49.383Z,980.51
2019-02-28T02:20:48.404Z,980.48
2019-02-28T02:21:48.322Z,980.42
2019-02-28T02:22:49.360Z,980.47
2019-02-28T02:23:49.589Z,980.38
2019-02-28T02:24:50.187Z,980.33
2019-02-28T02:25:51.191Z,980.32
2019-02-28T02:26:51.498Z,980.29
2019-02-28T02:27:52.797Z,980.27
2019-02-28T02:28:48.343Z,980.27
2019-02-28T02:29:50.345Z,980.30
2019-02-28T02:30:51.018Z,980.28
2019-02-28T02:31:48.332Z,980.28
2019-02-28T02:32:48.162Z,980.21
2019-02-28T02:33:52.341Z,980.21
2019-02-28T02:34:48.198Z,980.22
2019-02-28T02:35:48.144Z,980.13
2019-02-28T02:36:53.066Z,980.19
2019-02-28T02:37:48.308Z,980.17
2019-02-28T02:38:48.196Z,980.13
2019-02-28T02:39:50.171Z,980.18
2019-02-28T02:40:48.324Z,980.15
2019-02-28T02:41:48.085Z,980.14
2019-02-28T02:42:49.699Z,980.10
2019-02-28T02:43:47.940Z,980.11
2019-02-28T02:44:48.048Z,980.06
2019-02-28T02:45:52.727Z,980.07
2019-02-28T02:46:47.983Z,980.05
2019-02-28T02:47:49.747Z,980.09
2019-02-28T02:48:47.927Z,980.10
2019-02-28T02:49:56.195Z,980.07
2019-02-28T02:50:47.948Z,980.08
2019-02-28T02:51:50.508Z,980.06
2019-02-28T02:52:48.064Z,980.10
2019-02-28T02:53:48.639Z,980.11
2019-02-28T02:54:52.119Z,980.07
2019-02-28T02:55:47.898Z,980.08
2019-02-28T02:56:48.964Z,980.05
2019-02-28T02:58:47.856Z,980.03
2019-02-28T02:59:50.648Z,980.01
2019-02-28T03:00:51.309Z,980.00
2019-02-28T03:01:47.940Z,980.03
2019-02-28T03:02:47.720Z,980.01
2019-02-28T03:04:47.751Z,979.95
2019-02-28T03:05:48.294Z,979.78
2019-02-28T03:06:47.779Z,979.99
2019-02-28T03:07:47.672Z,979.92
2019-02-28T03:08:47.659Z,979.90
2019-02-28T03:09:47.657Z,979.87
2019-02-28T03:10:51.863Z,979.90
2019-02-28T03:11:47.583Z,979.89
2019-02-28T03:12:47.485Z,979.89
2019-02-28T03:13:47.475Z,979.91
2019-02-28T03:14:48.714Z,979.87
2019-02-28T03:15:48.179Z,979.90
2019-02-28T03:19:19.516Z,979.83
2019-02-28T03:20:20.968Z,979.80
2019-02-28T03:21:19.973Z,979.78
2019-02-28T03:22:19.149Z,979.74
2019-02-28T03:23:19.075Z,979.74
2019-02-28T03:24:20.925Z,979.71
2019-02-28T03:25:19.283Z,979.75
2019-02-28T03:26:19.051Z,979.73
2019-02-28T03:27:25.933Z,979.67
2019-02-28T03:28:20.865Z,979.67
2019-02-28T03:29:18.851Z,979.68
2019-02-28T03:30:28.415Z,979.64
2019-02-28T03:31:18.979Z,979.64
2019-02-28T03:32:18.972Z,979.63
2019-02-28T03:33:27.439Z,979.63
2019-02-28T03:35:18.946Z,979.66
2019-02-28T03:36:18.937Z,979.66
2019-02-28T03:37:19.516Z,979.67
2019-02-28T03:38:18.962Z,979.64
2019-02-28T03:39:24.068Z,979.62
2019-02-28T03:40:19.589Z,979.63
2019-02-28T03:41:20.547Z,979.57
2019-02-28T03:42:20.265Z,979.57
2019-02-28T03:43:18.782Z,979.61
2019-02-28T03:44:21.590Z,979.56
2019-02-28T03:45:18.801Z,979.55
2019-02-28T03:46:19.570Z,979.52
2019-02-28T03:47:29.515Z,979.53
2019-02-28T03:48:18.738Z,979.47
2019-02-28T03:49:18.833Z,979.48
2019-02-28T03:50:21.989Z,979.48
2019-02-28T03:51:20.427Z,979.45
2019-02-28T03:52:18.676Z,979.46
2019-02-28T03:53:20.009Z,979.37
2019-02-28T03:54:19.457Z,979.42
2019-02-28T03:55:18.438Z,979.46
2019-02-28T03:56:23.438Z,979.36
2019-02-28T03:57:18.503Z,979.38
2019-02-28T03:58:42.936Z,979.34
2019-02-28T03:59:18.845Z,979.38
2019-02-28T04:00:20.023Z,979.39
2019-02-28T04:01:18.576Z,979.38
2019-02-28T04:02:22.228Z,979.35
2019-02-28T04:03:18.466Z,979.37
2019-02-28T04:04:22.882Z,979.31
2019-02-28T04:05:18.304Z,979.29
2019-02-28T04:06:18.455Z,979.25
2019-02-28T04:07:24.922Z,979.23
2019-02-28T04:08:18.437Z,979.17
2019-02-28T04:09:18.566Z,979.20
2019-02-28T04:10:22.063Z,979.16
2019-02-28T04:11:18.311Z,979.17
2019-02-28T04:12:18.371Z,979.11
2019-02-28T04:13:19.224Z,979.11
2019-02-28T04:14:18.387Z,979.11
2019-02-28T04:15:18.640Z,979.09
2019-02-28T04:16:20.004Z,979.09
2019-02-28T04:17:30.088Z,979.13
2019-02-28T04:18:18.244Z,979.08
2019-02-28T04:19:21.702Z,979.08
2019-02-28T04:20:21.061Z,979.09
2019-02-28T04:21:18.989Z,979.06
2019-02-28T04:22:19.583Z,979.11
2019-02-28T04:23:18.057Z,979.10
2019-02-28T04:24:18.975Z,979.04
2019-02-28T04:25:24.124Z,979.10
2019-02-28T04:27:18.026Z,979.11
2019-02-28T04:28:19.064Z,979.09
2019-02-28T04:29:17.995Z,979.11
2019-02-28T04:30:18.465Z,979.09
2019-02-28T04:31:20.087Z,979.17
2019-02-28T04:32:17.790Z,979.16
2019-02-28T04:33:17.794Z,979.17
2019-02-28T04:34:17.984Z,979.17
2019-02-28T04:35:24.358Z,979.15
2019-02-28T04:36:17.897Z,979.13
2019-02-28T04:37:19.443Z,979.12
2019-02-28T04:38:20.507Z,979.14
2019-02-28T04:39:22.705Z,979.15
2019-02-28T04:41:17.691Z,979.13
2019-02-28T04:42:17.758Z,979.13
2019-02-28T04:43:17.642Z,979.09
2019-02-28T04:44:20.489Z,979.13
2019-02-28T04:45:17.649Z,979.07
2019-02-28T04:46:17.675Z,979.00
2019-02-28T04:47:18.402Z,979.06
2019-02-28T04:48:19.574Z,979.04
2019-02-28T04:49:21.785Z,979.00
2019-02-28T04:50:17.535Z,978.98
2019-02-28T04:52:17.618Z,978.96
2019-02-28T04:53:18.956Z,978.92
2019-02-28T04:54:17.647Z,978.90
2019-02-28T04:55:30.467Z,978.87
2019-02-28T04:56:17.509Z,978.91
2019-02-28T04:57:20.658Z,978.86
2019-02-28T04:58:17.499Z,978.88
2019-02-28T04:59:17.502Z,978.81
2019-02-28T05:00:19.031Z,978.82
2019-02-28T05:01:17.361Z,978.83
2019-02-28T05:02:19.937Z,978.83
2019-02-28T05:03:17.246Z,978.77
2019-02-28T05:04:17.503Z,978.71
2019-02-28T05:05:17.247Z,978.70
2019-02-28T05:06:18.309Z,978.70
2019-02-28T05:07:20.080Z,978.69
2019-02-28T05:08:21.943Z,978.67
2019-02-28T05:09:17.164Z,978.62
2019-02-28T05:10:19.304Z,978.60
2019-02-28T05:11:17.180Z,978.60
2019-02-28T05:12:17.318Z,978.57
2019-02-28T05:13:17.403Z,978.61
2019-02-28T05:14:17.193Z,978.57
2019-02-28T05:15:17.148Z,978.54
2019-02-28T05:16:17.137Z,978.60
2019-02-28T05:17:22.288Z,978.60
2019-02-28T05:18:20.078Z,978.58
2019-02-28T05:19:18.919Z,978.56
2019-02-28T05:20:17.104Z,978.57
2019-02-28T05:21:19.507Z,978.57
2019-02-28T05:22:17.013Z,978.60
2019-02-28T05:23:18.680Z,978.62
2019-02-28T05:24:17.636Z,978.62
2019-02-28T05:26:17.519Z,978.61
2019-02-28T05:27:24.433Z,978.62
2019-02-28T05:28:19.454Z,978.64
2019-02-28T05:29:17.598Z,978.60
2019-02-28T05:30:19.288Z,978.60
2019-02-28T05:31:16.836Z,978.60
2019-02-28T05:32:16.786Z,978.62
2019-02-28T05:33:17.816Z,978.65
2019-02-28T05:34:17.424Z,978.57
2019-02-28T05:35:16.975Z,978.55
2019-02-28T05:36:16.665Z,978.52
2019-02-28T05:37:17.340Z,978.53
2019-02-28T05:39:16.664Z,978.49
2019-02-28T05:40:17.695Z,978.53
2019-02-28T05:41:16.851Z,978.47
2019-02-28T05:42:16.672Z,978.56
2019-02-28T05:43:16.609Z,978.46
2019-02-28T05:44:16.582Z,978.48
2019-02-28T05:45:17.514Z,978.43
2019-02-28T05:46:17.281Z,978.43
2019-02-28T05:47:16.880Z,978.42
2019-02-28T05:48:17.473Z,978.46
2019-02-28T05:49:17.461Z,978.42
2019-02-28T05:52:51.703Z,978.44
2019-02-28T05:53:48.538Z,978.41
2019-02-28T05:57:04.655Z,978.38
2019-02-28T05:58:01.132Z,978.35
2019-02-28T06:00:03.551Z,978.33
2019-02-28T06:01:01.099Z,978.29
2019-02-28T06:02:58.045Z,978.23
2019-02-28T06:04:03.306Z,978.20
2019-02-28T06:06:51.490Z,978.14
2019-02-28T06:08:43.137Z,978.15
2019-02-28T06:09:45.565Z,978.11
2019-02-28T06:11:45.983Z,978.17
2019-02-28T06:12:43.947Z,978.14
2019-02-28T06:14:39.303Z,978.20
2019-02-28T06:15:39.435Z,978.18
2019-02-28T06:17:54.574Z,978.22
2019-02-28T06:18:33.888Z,978.21
2019-02-28T06:20:28.052Z,978.19
2019-02-28T06:21:27.427Z,978.20
2019-02-28T06:22:30.549Z,978.20
2019-02-28T06:23:27.293Z,978.22
2019-02-28T06:24:27.427Z,978.24
2019-02-28T06:25:29.017Z,978.25
2019-02-28T06:26:27.895Z,978.17
2019-02-28T06:27:29.023Z,978.18
2019-02-28T06:28:27.628Z,978.20
2019-02-28T06:29:27.467Z,978.16
2019-02-28T06:30:42.727Z,978.15
2019-02-28T06:31:27.319Z,978.18
2019-02-28T06:32:28.828Z,978.13
2019-02-28T06:33:27.152Z,978.17
2019-02-28T06:34:27.270Z,978.22
2019-02-28T06:35:31.859Z,978.22
2019-02-28T06:36:29.198Z,978.18
2019-02-28T06:37:28.034Z,978.21
2019-02-28T06:38:27.091Z,978.26
2019-02-28T06:39:27.915Z,978.28
2019-02-28T06:40:27.174Z,978.27
2019-02-28T06:41:28.074Z,978.29
2019-02-28T06:42:27.087Z,978.29
2019-02-28T06:43:27.879Z,978.27
2019-02-28T06:44:27.675Z,978.24
2019-02-28T06:45:28.957Z,978.25
2019-02-28T06:46:27.071Z,978.28
2019-02-28T06:47:27.179Z,978.27
2019-02-28T06:48:27.053Z,978.18
2019-02-28T06:49:27.070Z,978.22
2019-02-28T06:50:27.322Z,978.21
2019-02-28T06:51:27.037Z,978.12
2019-02-28T06:52:26.899Z,978.15
2019-02-28T06:53:26.685Z,978.12
2019-02-28T06:54:27.032Z,978.07
2019-02-28T06:55:28.060Z,978.10
2019-02-28T06:56:26.775Z,978.10
2019-02-28T06:57:27.496Z,978.03
2019-02-28T06:58:26.779Z,977.97
2019-02-28T06:59:26.638Z,977.93
2019-02-28T07:00:26.747Z,977.90
2019-02-28T07:02:28.469Z,977.89
2019-02-28T07:03:27.840Z,977.96
2019-02-28T07:04:27.479Z,977.98
2019-02-28T07:05:26.500Z,977.94
2019-02-28T07:07:31.308Z,977.91
2019-02-28T07:08:28.953Z,977.96
2019-02-28T07:09:26.732Z,977.94
2019-02-28T07:10:26.611Z,977.94
2019-02-28T07:11:26.416Z,977.91
2019-02-28T07:12:29.697Z,977.93
2019-02-28T07:13:26.490Z,977.97
2019-02-28T07:14:26.584Z,978.01
2019-02-28T07:15:26.511Z,978.02
2019-02-28T07:16:34.568Z,978.00
2019-02-28T07:17:26.512Z,978.06
2019-02-28T07:18:27.326Z,978.06
2019-02-28T07:19:27.567Z,978.04
2019-02-28T07:20:28.912Z,978.05
2019-02-28T07:21:30.156Z,978.03
2019-02-28T07:22:26.553Z,978.00
2019-02-28T07:23:26.691Z,978.08
2019-02-28T07:24:26.664Z,978.05
2019-02-28T07:26:28.169Z,978.06
2019-02-28T07:27:29.727Z,978.03
2019-02-28T07:28:27.194Z,978.04
2019-02-28T07:29:29.081Z,978.08
2019-02-28T07:30:26.400Z,978.02
2019-02-28T07:31:30.103Z,977.96
2019-02-28T07:32:27.031Z,978.00
2019-02-28T07:33:26.475Z,978.02
2019-02-28T07:34:28.022Z,978.04
2019-02-28T07:35:26.154Z,978.03
2019-02-28T07:36:29.332Z,977.98
2019-02-28T07:37:40.893Z,978.07
2019-02-28T07:38:28.861Z,978.06
2019-02-28T07:39:26.480Z,978.04
2019-02-28T07:40:27.117Z,978.02
2019-02-28T07:41:29.087Z,977.99
2019-02-28T07:43:02.038Z,978.00
2019-02-28T07:43:29.127Z,977.91
2019-02-28T07:44:29.007Z,977.95
2019-02-28T07:45:29.667Z,977.96
2019-02-28T07:46:52.238Z,977.88
2019-02-28T07:47:41.091Z,977.91
2019-02-28T07:50:03.956Z,977.89
2019-02-28T07:51:01.196Z,977.90
2019-02-28T07:51:59.245Z,977.90
2019-02-28T07:52:58.585Z,977.90
2019-02-28T07:53:58.560Z,977.91
2019-02-28T07:55:06.166Z,977.90
2019-02-28T07:56:13.214Z,977.98
2019-02-28T07:56:58.393Z,978.01
2019-02-28T07:59:05.302Z,977.96
2019-02-28T08:00:05.566Z,977.97
2019-02-28T08:01:01.368Z,977.95
2019-02-28T08:01:59.952Z,977.90
2019-02-28T08:03:00.260Z,977.93
2019-02-28T08:06:39.204Z,977.85
2019-02-28T08:07:34.177Z,977.83
2019-02-28T08:09:53.490Z,977.82
2019-02-28T08:10:47.936Z,977.88
2019-02-28T08:11:37.506Z,977.82
2019-02-28T08:12:37.654Z,977.77
2019-02-28T08:13:58.688Z,977.86
2019-02-28T08:14:57.393Z,977.84
2019-02-28T08:15:53.313Z,977.89
2019-02-28T08:16:39.675Z,977.95
2019-02-28T08:17:57.474Z,978.08
2019-02-28T08:18:58.390Z,978.06
2019-02-28T08:19:36.637Z,978.21
2019-02-28T08:22:11.091Z,978.17
2019-02-28T08:22:57.781Z,978.11
2019-02-28T08:23:39.224Z,978.09
2019-02-28T08:24:37.248Z,978.07
2019-02-28T08:25:58.675Z,978.09
2019-02-28T08:26:43.744Z,978.01
2019-02-28T08:28:38.401Z,978.09
2019-02-28T08:29:38.086Z,978.05
2019-02-28T08:30:39.574Z,978.09
2019-02-28T08:32:06.579Z,978.06
2019-02-28T08:34:59.370Z,978.10
2019-02-28T08:36:11.624Z,978.05
2019-02-28T08:38:34.273Z,978.09
2019-02-28T08:39:19.211Z,978.12
2019-02-28T08:40:19.076Z,978.06
2019-02-28T08:41:18.864Z,978.08
2019-02-28T08:42:18.954Z,978.10
2019-02-28T08:43:26.853Z,978.04
2019-02-28T08:44:22.697Z,978.06
2019-02-28T08:45:25.858Z,978.05
2019-02-28T08:46:21.005Z,978.03
2019-02-28T08:47:21.113Z,978.10
2019-02-28T08:48:18.426Z,978.06
2019-02-28T08:49:21.965Z,978.03
2019-02-28T08:51:20.016Z,978.00
2019-02-28T08:52:18.519Z,977.99
2019-02-28T08:53:22.083Z,977.97
2019-02-28T08:54:27.236Z,977.91
2019-02-28T08:55:27.917Z,977.95
2019-02-28T08:56:28.451Z,977.91
2019-02-28T08:57:25.715Z,977.88
2019-02-28T08:58:18.289Z,977.91
2019-02-28T08:59:22.566Z,977.90
2019-02-28T09:00:18.283Z,977.90
2019-02-28T09:01:18.678Z,977.96
2019-02-28T09:02:19.058Z,977.98
2019-02-28T09:03:45.937Z,977.90
2019-02-28T09:04:18.112Z,978.01
2019-02-28T09:05:18.521Z,978.04
2019-02-28T09:06:18.447Z,978.03
2019-02-28T09:07:18.162Z,978.05
2019-02-28T09:08:18.177Z,978.05
2019-02-28T09:09:18.288Z,978.05
2019-02-28T09:10:20.145Z,978.04
2019-02-28T09:11:20.584Z,978.04
2019-02-28T09:12:20.247Z,978.08
2019-02-28T09:13:19.075Z,978.08
2019-02-28T09:14:19.066Z,978.05
2019-02-28T09:15:18.918Z,978.04
2019-02-28T09:16:18.639Z,978.04
2019-02-28T09:17:24.597Z,978.05
2019-02-28T09:18:39.183Z,978.06
2019-02-28T09:19:17.870Z,978.05
2019-02-28T09:21:19.080Z,978.06
2019-02-28T09:23:19.257Z,978.06
2019-02-28T09:24:18.157Z,978.08
2019-02-28T09:25:21.553Z,978.03
2019-02-28T09:27:40.212Z,978.04
2019-02-28T09:28:20.796Z,978.11
2019-02-28T09:29:21.077Z,978.10
2019-02-28T09:30:20.743Z,978.10
2019-02-28T09:31:21.276Z,978.11
2019-02-28T09:32:18.833Z,978.12
2019-02-28T09:33:41.122Z,978.10
2019-02-28T09:34:17.771Z,978.10
2019-02-28T09:35:17.763Z,978.19
2019-02-28T09:36:21.738Z,978.20
2019-02-28T09:37:29.466Z,978.20
2019-02-28T09:38:18.049Z,978.26
2019-02-28T09:39:38.710Z,978.23
2019-02-28T09:40:18.928Z,978.26
2019-02-28T09:41:40.180Z,978.34
2019-02-28T09:42:24.738Z,978.27
2019-02-28T09:43:19.760Z,978.30
2019-02-28T09:44:42.815Z,978.30
2019-02-28T09:45:33.720Z,978.31
2019-02-28T09:46:18.800Z,978.29
2019-02-28T09:47:17.600Z,978.27
2019-02-28T09:49:17.632Z,978.31
2019-02-28T09:50:42.090Z,978.37
2019-02-28T09:51:17.556Z,978.36
2019-02-28T09:52:24.433Z,978.35
2019-02-28T09:53:19.139Z,978.39
2019-02-28T09:54:21.450Z,978.40
2019-02-28T09:55:17.500Z,978.46
2019-02-28T09:56:44.468Z,978.43
2019-02-28T09:57:18.906Z,978.40
2019-02-28T09:58:19.167Z,978.49
2019-02-28T09:59:19.067Z,978.50
2019-02-28T10:00:18.020Z,978.47
2019-02-28T10:01:21.206Z,978.49
2019-02-28T10:02:43.371Z,978.46
2019-02-28T10:03:19.529Z,978.50
2019-02-28T10:04:30.482Z,978.51
2019-02-28T10:05:29.334Z,978.47
2019-02-28T10:06:17.474Z,978.50
2019-02-28T10:07:23.341Z,978.52
2019-02-28T10:09:17.764Z,978.49
2019-02-28T10:10:20.881Z,978.51
2019-02-28T10:11:17.811Z,978.45
2019-02-28T10:12:19.915Z,978.43
2019-02-28T10:14:53.423Z,978.45
2019-02-28T10:15:51.883Z,978.47
2019-02-28T10:16:52.706Z,978.47
2019-02-28T10:17:52.820Z,978.40
2019-02-28T10:18:51.898Z,978.50
2019-02-28T10:19:52.354Z,978.50
2019-02-28T10:20:53.441Z,978.43
2019-02-28T10:21:52.354Z,978.51
2019-02-28T10:22:52.234Z,978.54
2019-02-28T10:23:53.413Z,978.56
2019-02-28T10:24:54.392Z,978.60
2019-02-28T10:25:51.919Z,978.62
2019-02-28T10:26:52.869Z,978.63
2019-02-28T10:27:54.402Z,978.63
2019-02-28T10:28:56.572Z,978.67
2019-02-28T10:29:52.679Z,978.66
2019-02-28T10:30:59.050Z,978.63
2019-02-28T10:31:51.618Z,978.64
2019-02-28T10:32:52.768Z,978.68
2019-02-28T10:33:53.170Z,978.65
2019-02-28T10:34:51.495Z,978.69
2019-02-28T10:35:55.466Z,978.71
2019-02-28T10:36:53.473Z,978.71
2019-02-28T10:37:57.440Z,978.70
2019-02-28T10:38:51.894Z,978.78
2019-02-28T10:39:51.526Z,978.74
2019-02-28T10:40:54.119Z,978.72
2019-02-28T10:41:51.980Z,978.69
2019-02-28T10:42:52.457Z,978.68
2019-02-28T10:43:55.934Z,978.72
2019-02-28T10:44:54.662Z,978.73
2019-02-28T10:45:51.361Z,978.77
2019-02-28T10:46:53.798Z,978.73
2019-02-28T10:47:51.524Z,978.76
2019-02-28T10:48:52.334Z,978.74
2019-02-28T10:49:51.245Z,978.72
2019-02-28T10:50:51.431Z,978.78
2019-02-28T10:51:51.538Z,978.78
2019-02-28T10:52:52.893Z,978.76
2019-02-28T10:53:52.459Z,978.82
2019-02-28T10:54:53.857Z,978.77
2019-02-28T10:55:57.562Z,978.75
2019-02-28T10:56:51.591Z,978.80
2019-02-28T10:57:51.251Z,978.78
2019-02-28T10:58:53.838Z,978.76
2019-02-28T10:59:51.286Z,978.82
2019-02-28T11:00:51.326Z,978.79
2019-02-28T11:01:51.188Z,978.84
2019-02-28T11:02:56.502Z,978.90
2019-02-28T11:03:51.285Z,978.92
2019-02-28T11:06:51.251Z,978.91
2019-02-28T11:07:51.076Z,978.78
2019-02-28T11:08:52.020Z,978.85
2019-02-28T11:09:55.643Z,978.95
2019-02-28T11:10:51.030Z,978.95
2019-02-28T11:11:53.084Z,978.94
2019-02-28T11:13:52.890Z,978.95
2019-02-28T11:14:52.948Z,978.96
2019-02-28T11:15:50.912Z,978.93
2019-02-28T11:16:51.003Z,978.99
2019-02-28T11:17:52.907Z,978.96
2019-02-28T11:18:50.880Z,978.98
2019-02-28T11:19:52.017Z,978.97
2019-02-28T11:21:50.872Z,978.99
2019-02-28T11:22:52.958Z,979.01
2019-02-28T11:23:50.817Z,979.02
2019-02-28T11:24:51.080Z,979.07
2019-02-28T11:25:53.052Z,979.05
2019-02-28T11:26:52.566Z,979.02
2019-02-28T11:27:53.691Z,979.06
2019-02-28T11:28:53.594Z,979.11
2019-02-28T11:29:50.864Z,979.11
2019-02-28T11:30:50.720Z,979.02
2019-02-28T11:31:54.329Z,979.02
2019-02-28T11:32:50.788Z,979.08
2019-02-28T11:33:50.833Z,979.08
2019-02-28T11:34:52.463Z,979.09
2019-02-28T11:35:57.662Z,979.14
2019-02-28T11:36:52.435Z,979.15
2019-02-28T11:37:50.603Z,979.19
2019-02-28T11:38:52.518Z,979.19
2019-02-28T11:39:50.754Z,979.21
2019-02-28T11:40:57.064Z,979.20
2019-02-28T11:41:52.530Z,979.20
2019-02-28T11:42:50.807Z,979.20
2019-02-28T11:43:50.593Z,979.24
2019-02-28T11:45:51.565Z,979.21
2019-02-28T11:46:52.474Z,979.21
2019-02-28T11:47:51.583Z,979.32
2019-02-28T11:48:50.976Z,979.26
2019-02-28T11:49:51.526Z,979.28
2019-02-28T11:50:50.559Z,979.31
2019-02-28T11:51:53.080Z,979.32
2019-02-28T11:52:50.634Z,979.39
2019-02-28T11:53:51.579Z,979.31
2019-02-28T11:54:50.468Z,979.38
2019-02-28T11:55:53.372Z,979.43
2019-02-28T11:56:50.287Z,979.42
2019-02-28T11:57:50.336Z,979.45
2019-02-28T11:58:51.698Z,979.44
2019-02-28T11:59:50.299Z,979.53
2019-02-28T12:00:50.293Z,979.49
2019-02-28T12:01:50.481Z,979.55
2019-02-28T12:02:53.229Z,979.51
2019-02-28T12:03:50.492Z,979.57
2019-02-28T12:04:50.489Z,979.60
2019-02-28T12:05:51.265Z,979.62
2019-02-28T12:06:50.382Z,979.65
2019-02-28T12:07:50.337Z,979.70
2019-02-28T12:08:50.420Z,979.69
2019-02-28T12:09:51.438Z,979.74
2019-02-28T12:10:51.643Z,979.72
2019-02-28T12:11:50.153Z,979.77
2019-02-28T12:12:50.209Z,979.80
2019-02-28T12:13:51.684Z,979.81
2019-02-28T12:14:51.824Z,979.83
2019-02-28T12:15:51.406Z,979.79
2019-02-28T12:16:53.571Z,979.82
2019-02-28T12:17:50.264Z,979.90
2019-02-28T12:18:50.129Z,979.91
2019-02-28T12:19:51.390Z,979.91
2019-02-28T12:20:52.295Z,979.92
2019-02-28T12:21:52.117Z,979.91
2019-02-28T12:22:50.187Z,979.94
2019-02-28T12:23:51.119Z,979.96
2019-02-28T12:24:51.152Z,979.97
2019-02-28T12:25:50.498Z,979.97
2019-02-28T12:26:52.709Z,980.00
2019-02-28T12:27:52.128Z,980.00
2019-02-28T12:28:58.178Z,980.01
2019-02-28T12:29:51.184Z,979.97
2019-02-28T12:30:50.084Z,980.05
2019-02-28T12:31:50.108Z,980.03
2019-02-28T12:32:52.587Z,980.11
2019-02-28T12:33:53.327Z,980.06
2019-02-28T12:34:49.873Z,980.11
2019-02-28T12:35:49.863Z,980.10
2019-02-28T12:36:52.390Z,980.14
2019-02-28T12:37:49.875Z,980.21
2019-02-28T12:38:49.871Z,980.17
2019-02-28T12:39:49.850Z,980.24
2019-02-28T12:40:49.931Z,980.26
2019-02-28T12:41:51.538Z,980.33
2019-02-28T12:42:51.044Z,980.32
2019-02-28T12:43:49.686Z,980.35
2019-02-28T12:44:52.485Z,980.37
2019-02-28T12:45:49.776Z,980.41
2019-02-28T12:46:49.711Z,980.44
2019-02-28T12:47:52.307Z,980.44
2019-02-28T12:48:50.938Z,980.54
2019-02-28T12:49:49.970Z,980.53
2019-02-28T12:50:49.638Z,980.54
2019-02-28T12:51:50.991Z,980.62
2019-02-28T12:52:50.078Z,980.56
2019-02-28T12:53:49.538Z,980.58
2019-02-28T12:54:51.381Z,980.60
2019-02-28T12:55:50.722Z,980.60
2019-02-28T12:56:51.375Z,980.58
2019-02-28T12:57:51.546Z,980.58
2019-02-28T12:58:49.653Z,980.65
2019-02-28T12:59:49.511Z,980.63
2019-02-28T13:00:49.534Z,980.70
2019-02-28T13:01:51.368Z,980.73
2019-02-28T13:02:49.469Z,980.73
2019-02-28T13:03:54.614Z,980.73
2019-02-28T13:04:49.436Z,980.75
2019-02-28T13:05:49.597Z,980.81
2019-02-28T13:06:49.320Z,980.84
2019-02-28T13:07:49.284Z,980.85
2019-02-28T13:08:49.657Z,980.90
2019-02-28T13:09:51.440Z,980.96
2019-02-28T13:10:49.387Z,981.05
2019-02-28T13:11:49.272Z,981.00
2019-02-28T13:12:50.245Z,980.97
2019-02-28T13:13:49.305Z,981.01
2019-02-28T13:14:50.778Z,981.04
2019-02-28T13:15:50.746Z,981.08
2019-02-28T13:16:49.299Z,981.10
2019-02-28T13:17:50.316Z,981.14
2019-02-28T13:18:49.313Z,981.13
2019-02-28T13:19:53.288Z,981.13
2019-02-28T13:20:49.097Z,981.11
2019-02-28T13:21:49.238Z,981.25
2019-02-28T13:22:50.892Z,981.19
2019-02-28T13:23:49.221Z,981.15
2019-02-28T13:24:49.225Z,981.23
2019-02-28T13:25:49.060Z,981.23
2019-02-28T13:26:50.050Z,981.25
2019-02-28T13:27:50.919Z,981.17
2019-02-28T13:28:49.157Z,981.25
2019-02-28T13:29:49.043Z,981.32
2019-02-28T13:30:51.459Z,981.33
2019-02-28T13:31:49.080Z,981.34